createdAt,value
2023-09-25T00:00:32.325Z,99.90
2023-09-25T00:03:02.344Z,99.90
2023-09-25T00:05:30.025Z,99.90
2023-09-25T00:08:00.011Z,99.90
2023-09-25T00:10:31.714Z,99.90
2023-09-25T00:12:59.990Z,99.90
2023-09-25T00:15:30.268Z,99.90
2023-09-25T00:17:58.419Z,99.90
2023-09-25T00:20:30.189Z,99.90
2023-09-25T00:22:59.014Z,99.90
2023-09-25T00:25:29.059Z,99.90
2023-09-25T00:28:02.781Z,99.90
2023-09-25T00:30:30.348Z,99.90
2023-09-25T00:32:59.295Z,99.90
2023-09-25T00:35:26.427Z,99.90
2023-09-25T00:37:53.108Z,99.90
2023-09-25T00:40:22.006Z,99.90
2023-09-25T00:42:56.261Z,99.90
2023-09-25T00:45:24.007Z,99.90
2023-09-25T00:47:52.182Z,99.90
2023-09-25T00:50:22.134Z,99.90
2023-09-25T00:52:54.047Z,99.90
2023-09-25T00:55:23.474Z,99.90
2023-09-25T00:57:53.126Z,99.90
2023-09-25T01:00:23.101Z,99.90
2023-09-25T01:02:53.062Z,99.90
2023-09-25T01:05:20.096Z,99.90
2023-09-25T01:07:53.081Z,99.90
2023-09-25T01:10:20.059Z,99.90
2023-09-25T01:12:49.094Z,99.90
2023-09-25T01:15:20.124Z,99.90
2023-09-25T01:17:52.440Z,99.90
2023-09-25T01:20:19.564Z,99.90
2023-09-25T01:22:54.082Z,99.90
2023-09-25T01:25:23.641Z,99.90
2023-09-25T01:27:50.717Z,99.90
2023-09-25T01:30:18.396Z,99.90
2023-09-25T01:32:47.439Z,99.90
2023-09-25T01:35:19.127Z,99.90
2023-09-25T01:37:47.299Z,99.90
2023-09-25T01:40:17.926Z,99.90
2023-09-25T01:42:48.264Z,99.90
2023-09-25T01:45:19.883Z,99.90
2023-09-25T01:47:51.770Z,99.90
2023-09-25T01:50:25.674Z,99.90
2023-09-25T01:52:56.587Z,99.90
2023-09-25T01:55:27.130Z,99.90
2023-09-25T01:57:58.347Z,99.90
2023-09-25T02:00:28.256Z,99.90
2023-09-25T02:02:58.276Z,99.90
2023-09-25T02:05:25.351Z,99.90
2023-09-25T02:07:56.125Z,99.90
2023-09-25T02:10:24.960Z,99.90
2023-09-25T02:12:51.872Z,99.90
2023-09-25T02:15:23.331Z,99.90
2023-09-25T02:17:50.271Z,99.90
2023-09-25T02:20:42.169Z,99.90
2023-09-25T02:23:12.158Z,99.90
2023-09-25T02:25:38.812Z,99.90
2023-09-25T02:28:11.268Z,99.90
2023-09-25T02:30:38.145Z,99.90
2023-09-25T02:33:04.980Z,99.90
2023-09-25T02:35:32.362Z,99.90
2023-09-25T02:38:00.360Z,99.90
2023-09-25T02:40:30.079Z,99.90
2023-09-25T02:43:02.728Z,99.90
2023-09-25T02:45:29.476Z,99.90
2023-09-25T02:47:59.193Z,99.90
2023-09-25T02:53:18.500Z,99.90
2023-09-25T02:55:50.580Z,99.90
2023-09-25T02:58:17.670Z,99.90
2023-09-25T03:00:45.574Z,99.90
2023-09-25T03:03:13.180Z,99.90
2023-09-25T03:05:41.247Z,99.90
2023-09-25T03:08:13.320Z,99.90
2023-09-25T03:10:42.199Z,99.90
2023-09-25T03:13:08.837Z,99.90
2023-09-25T03:15:36.814Z,99.90
2023-09-25T03:18:07.562Z,99.90
2023-09-25T03:20:34.299Z,99.90
2023-09-25T03:23:01.163Z,99.90
2023-09-25T03:25:27.838Z,99.90
2023-09-25T03:27:54.716Z,99.90
2023-09-25T03:30:21.536Z,99.90
2023-09-25T03:33:26.273Z,99.90
2023-09-25T03:35:53.831Z,99.90
2023-09-25T03:38:20.560Z,99.90
2023-09-25T03:40:47.927Z,99.90
2023-09-25T03:46:41.358Z,99.90
2023-09-25T03:55:22.343Z,99.90
2023-09-25T03:57:49.998Z,99.90
2023-09-25T04:00:31.368Z,99.90
2023-09-25T04:45:29.871Z,99.90
2023-09-25T04:50:49.183Z,99.90
2023-09-25T05:02:20.432Z,99.90
2023-09-25T05:04:49.929Z,99.90
2023-09-25T05:22:54.245Z,99.90
2023-09-25T05:34:04.482Z,99.90
2023-09-25T05:36:34.636Z,99.90
2023-09-25T05:39:06.840Z,99.90
2023-09-25T05:47:46.736Z,99.90
2023-09-25T05:56:29.269Z,99.90
2023-09-25T06:04:59.718Z,99.90
2023-09-25T06:07:36.839Z,99.90
2023-09-25T06:12:55.998Z,99.90
2023-09-25T06:18:50.351Z,99.90
2023-09-25T06:30:42.180Z,99.90
2023-09-25T06:39:41.158Z,99.90
2023-09-25T06:53:57.088Z,99.90
2023-09-25T07:00:14.193Z,99.90
2023-09-25T07:15:48.110Z,99.90
2023-09-25T07:18:25.202Z,99.90
2023-09-25T07:20:58.135Z,99.90
2023-09-25T07:23:29.777Z,99.90
2023-09-25T07:26:04.184Z,99.90
2023-09-25T07:28:41.273Z,99.90
2023-09-25T07:31:08.989Z,99.90
2023-09-25T07:42:58.876Z,99.90
2023-09-25T07:45:31.859Z,99.90
2023-09-25T07:48:01.815Z,99.90
2023-09-25T07:53:25.393Z,99.90
2023-09-25T08:10:37.164Z,99.90
2023-09-25T08:13:07.999Z,99.90
2023-09-25T08:15:37.944Z,99.90
2023-09-25T08:18:06.147Z,99.90
2023-09-25T08:20:34.452Z,99.90
2023-09-25T08:23:04.669Z,99.90
2023-09-25T08:47:52.184Z,99.90
2023-09-25T08:56:25.728Z,99.90
2023-09-25T09:10:47.890Z,99.90
2023-09-25T09:30:58.937Z,99.90
2023-09-25T09:33:30.021Z,99.90
2023-09-25T09:41:45.897Z,99.90
2023-09-25T09:47:23.555Z,99.90
2023-09-25T09:58:38.081Z,99.90
2023-09-25T10:01:12.938Z,99.90
2023-09-25T11:00:15.466Z,96.80
2023-09-25T11:17:58.445Z,95.40
2023-09-25T11:32:22.025Z,94.40
2023-09-25T11:40:40.110Z,91.50
2023-09-25T11:43:24.507Z,91.60
2023-09-25T11:45:53.415Z,90.80
2023-09-25T11:48:23.543Z,91.10
2023-09-25T11:50:56.804Z,91.30
2023-09-25T11:53:23.732Z,90.20
2023-09-25T11:55:51.077Z,90.00
2023-09-25T11:58:18.332Z,90.40
2023-09-25T12:00:52.238Z,90.40
2023-09-25T12:03:22.050Z,90.00
2023-09-25T12:05:57.975Z,87.90
2023-09-25T12:08:24.782Z,89.60
2023-09-25T12:10:54.208Z,90.40
2023-09-25T12:13:21.356Z,89.60
2023-09-25T12:15:48.198Z,90.50
2023-09-25T12:18:15.504Z,90.50
2023-09-25T12:20:46.065Z,90.70
2023-09-25T12:23:12.872Z,90.20
2023-09-25T12:25:46.388Z,88.20
2023-09-25T12:28:15.529Z,87.30
2023-09-25T12:30:46.999Z,86.20
2023-09-25T12:33:17.150Z,86.40
2023-09-25T12:35:47.248Z,82.70
2023-09-25T12:38:24.075Z,86.70
2023-09-25T12:40:52.293Z,82.00
2023-09-25T12:43:23.247Z,83.70
2023-09-25T12:45:50.065Z,84.10
2023-09-25T12:48:19.092Z,84.70
2023-09-25T12:50:49.192Z,83.80
2023-09-25T12:53:18.300Z,83.80
2023-09-25T12:55:52.232Z,83.70
2023-09-25T12:58:21.101Z,81.50
2023-09-25T13:00:54.404Z,81.90
2023-09-25T13:03:28.747Z,82.70
2023-09-25T13:05:55.733Z,84.80
2023-09-25T13:08:26.201Z,85.10
2023-09-25T13:10:54.971Z,84.20
2023-09-25T13:16:21.843Z,85.60
2023-09-25T13:18:48.631Z,84.00
2023-09-25T13:21:20.292Z,81.70
2023-09-25T13:23:49.582Z,82.00
2023-09-25T13:26:18.800Z,82.20
2023-09-25T13:28:50.911Z,81.50
2023-09-25T13:34:09.685Z,81.50
2023-09-25T13:36:38.652Z,81.20
2023-09-25T13:39:05.386Z,81.50
2023-09-25T13:41:32.257Z,80.90
2023-09-25T13:44:00.612Z,79.90
2023-09-25T13:46:30.908Z,82.00
2023-09-25T13:49:00.576Z,79.00
2023-09-25T13:51:31.623Z,79.70
2023-09-25T13:54:00.869Z,82.00
2023-09-25T13:56:33.692Z,78.90
2023-09-25T13:59:04.665Z,80.00
2023-09-25T14:01:32.823Z,81.20
2023-09-25T14:04:00.097Z,80.90
2023-09-25T14:06:29.193Z,81.50
2023-09-25T14:08:59.427Z,80.40
2023-09-25T14:11:28.542Z,77.50
2023-09-25T14:14:02.098Z,79.70
2023-09-25T14:16:28.841Z,76.50
2023-09-25T14:18:58.063Z,79.70
2023-09-25T14:21:24.841Z,79.90
2023-09-25T14:23:54.198Z,77.10
2023-09-25T14:26:23.773Z,79.10
2023-09-25T14:28:54.397Z,77.30
2023-09-25T14:34:27.327Z,76.70
2023-09-25T14:36:54.156Z,77.10
2023-09-25T14:39:28.974Z,77.20
2023-09-25T14:41:57.934Z,77.00
2023-09-25T14:44:26.905Z,76.60
2023-09-25T14:46:56.907Z,76.50
2023-09-25T14:49:25.932Z,77.60
2023-09-25T14:52:21.436Z,77.10
2023-09-25T14:54:51.378Z,76.50
2023-09-25T14:57:25.480Z,76.00
2023-09-25T14:59:58.806Z,77.50
2023-09-25T15:02:25.455Z,78.00
2023-09-25T15:04:52.472Z,79.50
2023-09-25T15:07:19.440Z,78.60
2023-09-25T15:09:49.572Z,78.20
2023-09-25T15:12:17.193Z,78.40
2023-09-25T15:14:47.088Z,79.80
2023-09-25T15:17:16.884Z,77.20
2023-09-25T15:19:48.447Z,78.50
2023-09-25T15:22:15.136Z,79.10
2023-09-25T15:24:48.494Z,78.70
2023-09-25T15:27:18.508Z,80.10
2023-09-25T15:29:47.392Z,79.10
2023-09-25T15:32:21.299Z,78.20
2023-09-25T15:34:54.622Z,78.00
2023-09-25T15:37:22.655Z,78.20
2023-09-25T15:39:51.585Z,79.40
2023-09-25T15:42:19.333Z,80.40
2023-09-25T15:44:49.548Z,80.40
2023-09-25T15:47:17.055Z,79.80
2023-09-25T15:49:51.763Z,80.30
2023-09-25T15:52:22.330Z,80.50
2023-09-25T15:54:52.547Z,81.80
2023-09-25T15:57:19.250Z,81.60
2023-09-25T15:59:53.573Z,82.30
2023-09-25T16:02:21.387Z,83.60
2023-09-25T16:04:51.504Z,83.80
2023-09-25T16:07:20.400Z,84.80
2023-09-25T16:09:52.843Z,83.80
2023-09-25T16:12:22.562Z,84.40
2023-09-25T16:14:52.279Z,85.10
2023-09-25T16:17:19.050Z,85.40
2023-09-25T16:19:50.868Z,86.90
2023-09-25T16:22:17.818Z,88.10
2023-09-25T16:24:44.998Z,88.80
2023-09-25T16:27:15.664Z,88.30
2023-09-25T16:29:44.824Z,89.20
2023-09-25T16:32:14.598Z,90.50
2023-09-25T16:34:43.853Z,90.10
2023-09-25T16:37:10.861Z,90.30
2023-09-25T16:39:38.090Z,90.70
2023-09-25T16:42:34.271Z,91.10
2023-09-25T16:45:08.662Z,91.30
2023-09-25T16:47:35.723Z,91.80
2023-09-25T16:50:07.043Z,91.70
2023-09-25T16:52:34.394Z,92.00
2023-09-25T16:55:03.890Z,92.00
2023-09-25T16:57:30.828Z,92.10
2023-09-25T17:00:28.396Z,92.20
2023-09-25T17:03:20.796Z,93.10
2023-09-25T17:05:47.796Z,94.40
2023-09-25T17:08:17.953Z,95.70
2023-09-25T17:10:50.454Z,96.60
2023-09-25T17:13:19.095Z,97.40
2023-09-25T17:18:38.257Z,98.60
2023-09-25T17:21:05.137Z,99.30
2023-09-25T17:24:02.662Z,99.90
2023-09-25T17:26:30.081Z,99.90
2023-09-25T17:29:01.600Z,99.90
2023-09-25T17:31:29.664Z,99.90
2023-09-25T17:33:56.568Z,99.90
2023-09-25T17:36:26.524Z,99.90
2023-09-25T17:38:54.470Z,99.90
2023-09-25T17:41:28.176Z,99.90
2023-09-25T17:44:09.886Z,99.90
2023-09-25T17:46:41.981Z,99.90
2023-09-25T17:49:12.451Z,99.90
2023-09-25T17:51:39.479Z,99.90
2023-09-25T17:54:08.589Z,99.90
2023-09-25T17:56:35.291Z,99.90
2023-09-25T17:59:02.147Z,99.90
2023-09-25T18:01:29.263Z,99.90
2023-09-25T18:03:56.236Z,99.90
2023-09-25T18:06:23.405Z,99.90
2023-09-25T18:08:50.035Z,99.90
2023-09-25T18:11:18.093Z,99.90
2023-09-25T18:13:46.287Z,99.90
2023-09-25T18:16:16.720Z,99.90
2023-09-25T18:18:43.473Z,99.90
2023-09-25T18:21:14.928Z,99.90
2023-09-25T18:23:43.680Z,99.90
2023-09-25T18:26:14.222Z,99.90
2023-09-25T18:28:42.911Z,99.90
2023-09-25T18:31:13.252Z,99.90
2023-09-25T18:33:42.731Z,99.90
2023-09-25T18:36:13.231Z,99.90
2023-09-25T18:38:42.935Z,99.90
2023-09-25T18:41:09.879Z,99.90
2023-09-25T18:43:36.581Z,99.90
2023-09-25T18:46:10.813Z,99.90
2023-09-25T18:48:39.910Z,99.90
2023-09-25T18:51:09.552Z,99.90
2023-09-25T18:53:38.402Z,99.90
2023-09-25T18:56:10.801Z,99.90
2023-09-25T18:58:40.287Z,99.90
2023-09-25T19:01:09.704Z,99.90
2023-09-25T19:04:00.299Z,99.90
2023-09-25T19:06:30.903Z,99.90
2023-09-25T19:09:00.012Z,99.90
2023-09-25T19:11:33.775Z,99.90
2023-09-25T19:14:03.315Z,99.90
2023-09-25T19:16:30.568Z,99.90
2023-09-25T19:18:59.746Z,99.90
2023-09-25T19:21:29.665Z,99.90
2023-09-25T19:24:03.536Z,99.90
2023-09-25T19:26:34.504Z,99.90
2023-09-25T19:29:03.826Z,99.90
2023-09-25T19:31:39.382Z,99.90
2023-09-25T19:34:11.538Z,99.90
2023-09-25T19:36:41.443Z,99.90
2023-09-25T19:39:10.292Z,99.90
2023-09-25T19:41:37.647Z,99.90
2023-09-25T19:44:06.370Z,99.90
2023-09-25T19:49:33.524Z,99.90
2023-09-25T19:52:02.214Z,99.90
2023-09-25T19:54:29.773Z,99.90
2023-09-25T19:56:56.994Z,99.90
2023-09-25T20:02:43.273Z,99.90
2023-09-25T20:05:10.290Z,99.90
2023-09-25T20:07:39.371Z,99.90
2023-09-25T20:10:15.887Z,99.90
2023-09-25T20:12:48.912Z,99.90
2023-09-25T20:15:19.053Z,99.90
2023-09-25T20:17:54.138Z,99.90
2023-09-25T20:32:05.181Z,99.90
2023-09-25T20:34:33.895Z,99.90
2023-09-25T20:37:30.661Z,99.90
2023-09-25T20:40:01.134Z,99.90
2023-09-25T20:42:27.930Z,99.90
2023-09-25T20:44:55.239Z,99.90
2023-09-25T20:47:27.160Z,99.90
2023-09-25T20:49:54.014Z,99.90
2023-09-25T20:52:30.997Z,99.90
2023-09-25T20:55:03.012Z,99.90
2023-09-25T20:57:36.083Z,99.90
2023-09-25T21:00:10.073Z,99.90
2023-09-25T21:02:40.460Z,99.90
2023-09-25T21:05:07.560Z,99.90
2023-09-25T21:07:34.432Z,99.90
2023-09-25T21:10:01.678Z,99.90
2023-09-25T21:12:29.097Z,99.90
2023-09-25T21:14:59.089Z,99.90
2023-09-25T21:17:27.478Z,99.90
2023-09-25T21:19:57.630Z,99.90
2023-09-25T21:22:24.535Z,99.90
2023-09-25T21:24:52.568Z,99.90
2023-09-25T21:27:19.721Z,99.90
2023-09-25T21:29:46.558Z,99.90
2023-09-25T21:32:14.783Z,99.90
2023-09-25T21:34:41.463Z,99.90
2023-09-25T21:37:13.902Z,99.90
2023-09-25T21:39:40.773Z,99.90
2023-09-25T21:42:08.813Z,99.90
2023-09-25T21:44:38.276Z,99.90
2023-09-25T21:47:05.208Z,99.90
2023-09-25T21:49:39.216Z,99.90
2023-09-25T21:52:07.095Z,99.90
2023-09-25T21:54:43.287Z,99.90
2023-09-25T21:57:10.805Z,99.90
2023-09-25T21:59:41.238Z,99.90
2023-09-25T22:02:22.098Z,99.90
2023-09-25T22:04:52.025Z,99.90
2023-09-25T22:07:19.831Z,99.90
2023-09-25T22:09:46.724Z,99.90
2023-09-25T22:12:21.332Z,99.90
2023-09-25T22:14:51.019Z,99.90
2023-09-25T22:17:19.532Z,99.90
2023-09-25T22:19:48.516Z,99.90
2023-09-25T22:22:20.587Z,99.90
2023-09-25T22:24:47.731Z,99.90
2023-09-25T22:27:25.067Z,99.90
2023-09-25T22:29:55.120Z,99.90
2023-09-25T22:32:22.756Z,99.90
2023-09-25T22:34:55.942Z,99.90
2023-09-25T22:37:25.206Z,99.90
2023-09-25T22:39:56.186Z,99.90
2023-09-25T22:42:30.304Z,99.90
2023-09-25T22:45:03.181Z,99.90
2023-09-25T22:47:30.351Z,99.90
2023-09-25T22:49:57.034Z,99.90
2023-09-25T22:52:24.754Z,99.90
2023-09-25T22:54:51.780Z,99.90
2023-09-25T22:57:18.386Z,99.90
2023-09-25T22:59:48.277Z,99.90
2023-09-25T23:02:19.076Z,99.90
2023-09-25T23:04:48.595Z,99.90
2023-09-25T23:07:15.627Z,99.90
2023-09-25T23:10:10.049Z,99.90
2023-09-25T23:13:06.432Z,99.90
2023-09-25T23:15:36.447Z,99.90
2023-09-25T23:18:03.813Z,99.90
2023-09-25T23:20:37.252Z,99.90
2023-09-25T23:23:04.112Z,99.90
2023-09-25T23:25:34.277Z,99.90
2023-09-25T23:28:02.043Z,99.90
2023-09-25T23:30:33.415Z,99.90
2023-09-25T23:33:00.081Z,99.90
2023-09-25T23:35:27.202Z,99.90
2023-09-25T23:37:54.097Z,99.90
2023-09-25T23:40:24.630Z,99.90
2023-09-25T23:42:52.386Z,99.90
2023-09-25T23:45:22.192Z,99.90
2023-09-25T23:47:49.353Z,99.90
2023-09-25T23:50:16.690Z,99.90
2023-09-25T23:52:47.744Z,99.90
2023-09-25T23:55:15.309Z,99.90
2023-09-25T23:57:42.968Z,99.90
